Time;durP1;ratioP1;P1;durP2;ratioP2;P2;SDS_P1;SDS_P2;PMS_P1;PMS_P2;Temp;Humidity;BMP_temperature;BMP_pressure;BME280_temperature;BME280_humidity;BME280_pressure;Samples;Min_cycle;Max_cycle;Signal;HPM_P1;HPM_P2
2023/01/18 00:01:12;;;;;;;;;;;0.10;99.90;;;;;;5069978;28;19931;-74
2023/01/18 00:03:41;;;;;;;;;;;0.10;99.90;;;;;;5071849;28;20317;-74
2023/01/18 00:06:12;;;;;;;;;;;0.00;99.90;;;;;;5089537;28;19942;-73
2023/01/18 00:08:45;;;;;;;;;;;0.00;99.90;;;;;;5099247;28;19931;-74
2023/01/18 00:11:17;;;;;;;;;;;-0.10;99.90;;;;;;5075079;28;20404;-73
2023/01/18 00:13:46;;;;;;;;;;;-0.10;99.90;;;;;;5075055;28;19924;-74
2023/01/18 00:16:17;;;;;;;;;;;-0.30;99.90;;;;;;5083321;28;19924;-74
2023/01/18 00:18:50;;;;;;;;;;;-0.20;99.90;;;;;;5070882;28;19934;-74
2023/01/18 00:21:19;;;;;;;;;;;-0.30;99.90;;;;;;5081263;28;19958;-73
2023/01/18 00:23:48;;;;;;;;;;;-0.30;99.90;;;;;;5071812;28;20441;-74
2023/01/18 00:26:16;;;;;;;;;;;-0.30;99.90;;;;;;5093367;28;19931;-74
2023/01/18 00:28:48;;;;;;;;;;;-0.40;99.90;;;;;;5082657;28;19925;-74
2023/01/18 00:31:20;;;;;;;;;;;-0.40;99.90;;;;;;5071271;28;19994;-74
2023/01/18 00:33:52;;;;;;;;;;;-0.50;99.90;;;;;;5098326;28;19968;-74
2023/01/18 00:36:24;;;;;;;;;;;-0.50;99.90;;;;;;5099890;28;19927;-72
2023/01/18 00:38:55;;;;;;;;;;;-0.50;99.90;;;;;;5090186;28;19923;-72
2023/01/18 00:41:27;;;;;;;;;;;-0.50;99.90;;;;;;5089433;28;20390;-74
2023/01/18 00:44:00;;;;;;;;;;;-0.50;99.90;;;;;;5096861;28;19923;-74
2023/01/18 00:46:32;;;;;;;;;;;-0.50;99.90;;;;;;5106605;28;20638;-74
2023/01/18 00:49:04;;;;;;;;;;;-0.50;99.90;;;;;;5102875;28;19934;-71
2023/01/18 00:51:36;;;;;;;;;;;-0.50;99.90;;;;;;5096681;27;20390;-73
2023/01/18 00:54:08;;;;;;;;;;;-0.50;99.90;;;;;;5101392;28;19924;-74
2023/01/18 00:56:39;;;;;;;;;;;-0.50;99.90;;;;;;5084132;28;19986;-74
2023/01/18 00:59:11;;;;;;;;;;;-0.50;99.90;;;;;;5090313;28;19981;-73
2023/01/18 01:01:44;;;;;;;;;;;-0.50;99.90;;;;;;5090040;28;19924;-71
2023/01/18 01:07:03;;;;;;;;;;;-0.60;99.90;;;;;;5085535;28;19923;-73
2023/01/18 01:09:32;;;;;;;;;;;-0.60;99.90;;;;;;5073792;28;20406;-72
2023/01/18 01:26:12;;;;;;;;;;;-0.60;99.90;;;;;;5090253;28;19928;-74
2023/01/18 01:28:44;;;;;;;;;;;-0.70;99.90;;;;;;5072734;28;19924;-74
2023/01/18 01:31:17;;;;;;;;;;;-0.70;99.90;;;;;;5094416;28;19962;-71
2023/01/18 01:33:47;;;;;;;;;;;-0.70;99.90;;;;;;5074987;28;20026;-73
2023/01/18 01:36:17;;;;;;;;;;;-0.80;99.90;;;;;;5066038;28;19924;-72
2023/01/18 01:38:48;;;;;;;;;;;-0.80;99.90;;;;;;5090516;28;19999;-74
2023/01/18 01:41:25;;;;;;;;;;;-0.80;99.90;;;;;;5085374;28;20011;-72
2023/01/18 01:43:57;;;;;;;;;;;-0.80;99.90;;;;;;5078665;28;19931;-73
2023/01/18 01:46:45;;;;;;;;;;;-0.80;99.90;;;;;;5068598;28;19935;-73
2023/01/18 01:49:31;;;;;;;;;;;-0.80;99.90;;;;;;5083843;28;20019;-74
2023/01/18 01:52:03;;;;;;;;;;;-0.80;99.90;;;;;;5077548;28;19938;-74
2023/01/18 01:54:38;;;;;;;;;;;-0.90;99.90;;;;;;5070171;28;20325;-74
2023/01/18 01:57:09;;;;;;;;;;;-0.90;99.90;;;;;;5081991;28;19958;-74
2023/01/18 01:59:41;;;;;;;;;;;-0.90;99.90;;;;;;5072004;28;19931;-74
2023/01/18 02:02:11;;;;;;;;;;;-0.90;99.90;;;;;;5060680;28;19935;-73
2023/01/18 02:04:43;;;;;;;;;;;-1.00;99.90;;;;;;5087119;28;20525;-73
2023/01/18 02:07:12;;;;;;;;;;;-1.00;99.90;;;;;;5076664;28;19924;-74
2023/01/18 02:09:42;;;;;;;;;;;-1.00;99.90;;;;;;5066873;28;19924;-74
2023/01/18 02:12:11;;;;;;;;;;;-1.10;99.90;;;;;;5069276;28;19935;-73
2023/01/18 02:14:41;;;;;;;;;;;-1.10;99.90;;;;;;5075131;28;19927;-74
2023/01/18 02:17:19;;;;;;;;;;;-1.10;99.90;;;;;;5071010;28;20018;-73
2023/01/18 02:19:57;;;;;;;;;;;-1.10;99.90;;;;;;5088812;28;19924;-73
2023/01/18 02:22:29;;;;;;;;;;;-1.10;99.90;;;;;;5089415;28;20350;-74
2023/01/18 02:25:10;;;;;;;;;;;-1.10;99.90;;;;;;5073208;28;19923;-73
2023/01/18 02:27:44;;;;;;;;;;;-1.20;99.90;;;;;;5064978;28;20402;-73
2023/01/18 02:30:29;;;;;;;;;;;-1.20;99.90;;;;;;5064477;28;19960;-74
2023/01/18 02:33:07;;;;;;;;;;;-1.20;99.90;;;;;;5091704;28;19930;-74
2023/01/18 02:35:36;;;;;;;;;;;-1.20;99.90;;;;;;5074629;28;19971;-74
2023/01/18 02:38:03;;;;;;;;;;;-1.30;99.90;;;;;;5074258;28;19924;-73
2023/01/18 02:40:48;;;;;;;;;;;-1.30;99.90;;;;;;5088130;28;20347;-72
2023/01/18 02:48:57;;;;;;;;;;;-1.30;99.90;;;;;;5086170;28;20317;-73
2023/01/18 02:51:26;;;;;;;;;;;-1.20;99.90;;;;;;5061699;28;19924;-74
2023/01/18 02:53:56;;;;;;;;;;;-1.20;99.90;;;;;;5100093;28;19978;-71
2023/01/18 02:56:25;;;;;;;;;;;-1.30;99.90;;;;;;5089852;28;19931;-74
2023/01/18 02:59:04;;;;;;;;;;;-1.20;99.90;;;;;;5061971;28;19968;-74
2023/01/18 03:01:47;;;;;;;;;;;-1.20;99.90;;;;;;5071415;28;19924;-73
2023/01/18 03:04:21;;;;;;;;;;;-1.30;99.90;;;;;;5075740;28;19939;-73
2023/01/18 03:07:00;;;;;;;;;;;-1.30;99.90;;;;;;5091718;28;20230;-74
2023/01/18 03:09:29;;;;;;;;;;;-1.30;99.90;;;;;;5068199;28;19935;-73
2023/01/18 03:12:14;;;;;;;;;;;-1.30;99.90;;;;;;5087270;28;19970;-74
2023/01/18 03:14:53;;;;;;;;;;;-1.20;99.90;;;;;;5082458;28;20014;-73
2023/01/18 03:17:26;;;;;;;;;;;-1.00;99.90;;;;;;5087458;28;19931;-74
2023/01/18 03:25:34;;;;;;;;;;;-0.50;99.90;;;;;;5090387;28;19924;-73
2023/01/18 03:33:49;;;;;;;;;;;0.00;99.90;;;;;;5091231;28;19935;-73
2023/01/18 03:36:24;;;;;;;;;;;0.10;99.90;;;;;;5083232;28;19957;-72
2023/01/18 03:38:55;;;;;;;;;;;0.20;99.90;;;;;;5089524;28;19932;-72
2023/01/18 03:41:28;;;;;;;;;;;0.30;99.90;;;;;;5098523;28;20026;-71
2023/01/18 03:43:58;;;;;;;;;;;0.20;99.90;;;;;;5087580;28;20498;-72
2023/01/18 03:46:34;;;;;;;;;;;0.30;99.90;;;;;;5097631;28;20064;-73
2023/01/18 03:49:01;;;;;;;;;;;0.30;99.90;;;;;;5066259;28;19931;-74
2023/01/18 03:51:30;;;;;;;;;;;0.30;99.90;;;;;;5089198;28;19924;-73
2023/01/18 03:54:01;;;;;;;;;;;0.30;99.90;;;;;;5095097;28;19936;-73
2023/01/18 03:56:34;;;;;;;;;;;0.30;99.90;;;;;;5085285;28;19928;-73
2023/01/18 03:59:04;;;;;;;;;;;0.30;99.90;;;;;;5083445;28;19924;-74
2023/01/18 04:01:33;;;;;;;;;;;0.30;99.90;;;;;;5061279;28;19927;-73
2023/01/18 04:04:02;;;;;;;;;;;0.30;99.90;;;;;;5064135;28;19924;-73
2023/01/18 04:06:32;;;;;;;;;;;0.30;99.90;;;;;;5075804;28;19931;-73
2023/01/18 04:09:01;;;;;;;;;;;0.30;99.90;;;;;;5067056;28;19927;-72
2023/01/18 04:11:30;;;;;;;;;;;0.40;99.90;;;;;;5066195;28;19938;-73
2023/01/18 04:13:59;;;;;;;;;;;0.40;99.90;;;;;;5090880;28;19953;-73
2023/01/18 04:16:30;;;;;;;;;;;0.30;99.90;;;;;;5073406;28;20321;-74
2023/01/18 04:18:58;;;;;;;;;;;0.40;99.90;;;;;;5069943;28;19951;-74
2023/01/18 04:21:26;;;;;;;;;;;0.40;99.90;;;;;;5084194;28;19928;-74
2023/01/18 04:23:57;;;;;;;;;;;0.40;99.90;;;;;;5089594;28;20463;-74
2023/01/18 04:26:29;;;;;;;;;;;0.40;99.90;;;;;;5090278;28;19946;-73
2023/01/18 04:28:58;;;;;;;;;;;0.40;99.90;;;;;;5102726;28;20001;-71
2023/01/18 04:31:25;;;;;;;;;;;0.40;99.90;;;;;;5083016;28;20298;-73
2023/01/18 04:33:55;;;;;;;;;;;0.40;99.90;;;;;;5091194;28;20163;-74
2023/01/18 04:36:22;;;;;;;;;;;0.50;99.90;;;;;;5076054;28;19935;-72
2023/01/18 04:38:54;;;;;;;;;;;0.50;99.90;;;;;;5100046;28;19935;-73
2023/01/18 04:41:23;;;;;;;;;;;0.50;99.90;;;;;;5086346;28;19924;-74
2023/01/18 04:43:52;;;;;;;;;;;0.50;99.90;;;;;;5090293;28;19928;-73
2023/01/18 04:46:21;;;;;;;;;;;0.50;99.90;;;;;;5074898;28;20387;-71
2023/01/18 04:48:51;;;;;;;;;;;0.50;99.90;;;;;;5073775;28;19928;-73
2023/01/18 04:51:26;;;;;;;;;;;0.50;99.90;;;;;;5102880;28;19970;-72
2023/01/18 04:53:54;;;;;;;;;;;0.50;99.90;;;;;;5074379;28;20295;-73
2023/01/18 04:56:28;;;;;;;;;;;0.50;99.90;;;;;;5100989;28;20409;-73
2023/01/18 04:58:57;;;;;;;;;;;0.60;99.90;;;;;;5069573;28;19992;-73
2023/01/18 05:01:28;;;;;;;;;;;0.60;99.90;;;;;;5085845;28;19966;-73
2023/01/18 05:03:57;;;;;;;;;;;0.70;99.90;;;;;;5078005;28;19923;-74
2023/01/18 05:06:26;;;;;;;;;;;0.70;99.90;;;;;;5065706;28;19928;-72
2023/01/18 05:08:56;;;;;;;;;;;0.80;99.90;;;;;;5078101;28;19931;-70
2023/01/18 05:11:25;;;;;;;;;;;0.90;99.90;;;;;;5067014;28;19924;-72
2023/01/18 05:13:54;;;;;;;;;;;0.90;99.90;;;;;;5072796;28;19931;-74
2023/01/18 05:16:23;;;;;;;;;;;0.90;99.90;;;;;;5073212;28;20585;-74
2023/01/18 05:18:55;;;;;;;;;;;0.90;99.90;;;;;;5067938;28;19950;-73
2023/01/18 05:21:24;;;;;;;;;;;0.90;99.90;;;;;;5088361;28;19951;-73
2023/01/18 05:23:53;;;;;;;;;;;0.90;99.90;;;;;;5083691;28;20382;-73
2023/01/18 05:26:23;;;;;;;;;;;1.00;99.90;;;;;;5073951;28;19959;-70
2023/01/18 05:28:55;;;;;;;;;;;1.00;99.90;;;;;;5068687;28;19928;-73
2023/01/18 05:31:25;;;;;;;;;;;1.00;99.90;;;;;;5070616;28;19931;-72
2023/01/18 05:33:56;;;;;;;;;;;1.00;99.90;;;;;;5091860;28;19977;-72
2023/01/18 05:36:24;;;;;;;;;;;1.10;99.90;;;;;;5086838;28;19932;-72
2023/01/18 05:38:57;;;;;;;;;;;1.10;99.90;;;;;;5064904;28;20536;-71
2023/01/18 05:41:27;;;;;;;;;;;1.00;99.90;;;;;;5075346;28;20290;-73
2023/01/18 05:43:56;;;;;;;;;;;1.00;99.90;;;;;;5105428;28;20012;-72
2023/01/18 05:46:25;;;;;;;;;;;1.00;99.90;;;;;;5088461;28;19924;-73
2023/01/18 05:48:58;;;;;;;;;;;1.00;99.90;;;;;;5074316;28;20733;-71
2023/01/18 05:51:27;;;;;;;;;;;1.00;99.90;;;;;;5088537;28;20006;-73
2023/01/18 05:53:56;;;;;;;;;;;0.90;99.90;;;;;;5071772;28;20291;-72
2023/01/18 05:56:26;;;;;;;;;;;0.90;99.90;;;;;;5054818;28;20305;-71
2023/01/18 05:58:55;;;;;;;;;;;0.90;99.90;;;;;;5087770;28;20035;-73
2023/01/18 06:01:27;;;;;;;;;;;0.80;99.90;;;;;;5069521;28;20411;-72
2023/01/18 06:03:56;;;;;;;;;;;0.80;99.90;;;;;;5068504;28;19969;-73
2023/01/18 06:06:30;;;;;;;;;;;0.80;99.90;;;;;;5064387;28;20277;-73
2023/01/18 06:09:03;;;;;;;;;;;0.80;99.90;;;;;;5058088;28;19993;-73
2023/01/18 06:11:33;;;;;;;;;;;0.80;99.90;;;;;;5084970;28;19932;-72
2023/01/18 06:14:01;;;;;;;;;;;0.80;99.90;;;;;;5091150;28;20030;-73
2023/01/18 06:16:31;;;;;;;;;;;0.80;99.90;;;;;;5092136;28;19996;-72
2023/01/18 06:19:00;;;;;;;;;;;0.80;99.90;;;;;;5093120;28;19928;-70
2023/01/18 06:21:28;;;;;;;;;;;0.80;99.90;;;;;;5069631;28;19928;-71
2023/01/18 06:23:58;;;;;;;;;;;0.80;99.90;;;;;;5092159;28;19928;-73
2023/01/18 06:26:32;;;;;;;;;;;0.80;99.90;;;;;;5103522;28;20015;-73
2023/01/18 06:29:03;;;;;;;;;;;0.70;99.90;;;;;;5076491;28;20338;-73
2023/01/18 06:31:37;;;;;;;;;;;0.70;99.90;;;;;;5092375;28;20627;-72
2023/01/18 06:34:08;;;;;;;;;;;0.80;99.90;;;;;;5109125;28;20325;-71
2023/01/18 06:36:39;;;;;;;;;;;0.80;99.90;;;;;;5091923;28;19923;-72
2023/01/18 06:39:09;;;;;;;;;;;0.80;99.90;;;;;;5091523;28;19916;-73
2023/01/18 06:41:40;;;;;;;;;;;0.80;99.90;;;;;;5082174;28;19928;-73
2023/01/18 06:44:07;;;;;;;;;;;0.80;99.90;;;;;;5088570;27;20461;-73
2023/01/18 06:46:38;;;;;;;;;;;0.80;99.90;;;;;;5107493;27;20329;-73
2023/01/18 06:49:08;;;;;;;;;;;0.80;99.90;;;;;;5075119;28;19939;-73
2023/01/18 06:51:50;;;;;;;;;;;0.80;99.90;;;;;;5098378;27;19930;-73
2023/01/18 06:54:20;;;;;;;;;;;0.90;99.90;;;;;;5101900;28;19990;-72
2023/01/18 06:56:48;;;;;;;;;;;0.90;99.90;;;;;;5076301;28;19962;-73
2023/01/18 06:59:16;;;;;;;;;;;0.90;99.90;;;;;;5064225;28;20405;-72
2023/01/18 07:01:47;;;;;;;;;;;0.90;99.90;;;;;;5077002;28;19930;-72
2023/01/18 07:04:16;;;;;;;;;;;0.90;99.90;;;;;;5088385;28;20394;-73
2023/01/18 07:06:46;;;;;;;;;;;0.90;99.90;;;;;;5072144;28;19977;-73
2023/01/18 07:09:17;;;;;;;;;;;0.90;99.90;;;;;;5090635;28;20308;-72
2023/01/18 07:11:46;;;;;;;;;;;1.00;99.90;;;;;;5087878;28;20383;-73
2023/01/18 07:14:15;;;;;;;;;;;1.00;99.90;;;;;;5075622;28;20410;-73
2023/01/18 07:16:44;;;;;;;;;;;1.00;99.90;;;;;;5074680;28;20397;-73
2023/01/18 07:19:15;;;;;;;;;;;1.00;99.90;;;;;;5090877;28;20365;-72
2023/01/18 07:21:45;;;;;;;;;;;1.00;99.90;;;;;;5076484;28;20410;-73
2023/01/18 07:24:19;;;;;;;;;;;1.00;99.90;;;;;;5074451;28;20386;-73
2023/01/18 07:26:52;;;;;;;;;;;1.00;99.90;;;;;;5090511;28;20374;-72
2023/01/18 07:29:21;;;;;;;;;;;1.10;99.90;;;;;;5087702;28;20382;-73
2023/01/18 07:31:53;;;;;;;;;;;1.10;99.90;;;;;;5105674;28;19928;-71
2023/01/18 07:34:22;;;;;;;;;;;1.10;99.90;;;;;;5113766;28;19924;-72
2023/01/18 07:36:53;;;;;;;;;;;1.10;99.90;;;;;;5085391;28;19970;-73
2023/01/18 07:39:21;;;;;;;;;;;1.10;99.90;;;;;;5072474;28;19974;-73
2023/01/18 07:41:52;;;;;;;;;;;1.10;99.90;;;;;;5082973;28;19928;-72
2023/01/18 07:44:21;;;;;;;;;;;1.10;99.90;;;;;;5076754;27;19969;-72
2023/01/18 07:46:48;;;;;;;;;;;1.10;99.90;;;;;;5090077;28;19924;-72
2023/01/18 07:49:17;;;;;;;;;;;1.10;99.90;;;;;;5074548;28;19927;-72
2023/01/18 07:51:46;;;;;;;;;;;1.10;99.90;;;;;;5073849;27;20153;-73
2023/01/18 07:54:18;;;;;;;;;;;1.10;99.90;;;;;;5082227;28;20047;-73
2023/01/18 07:56:48;;;;;;;;;;;1.10;99.90;;;;;;5089180;28;19928;-71
2023/01/18 07:59:19;;;;;;;;;;;1.10;99.90;;;;;;5075786;28;19923;-72
2023/01/18 08:01:49;;;;;;;;;;;1.10;99.90;;;;;;5070254;28;20317;-72
2023/01/18 08:04:18;;;;;;;;;;;1.10;99.90;;;;;;5066085;28;19928;-74
2023/01/18 08:06:50;;;;;;;;;;;1.10;99.90;;;;;;5101360;28;20183;-73
2023/01/18 08:09:18;;;;;;;;;;;1.10;99.90;;;;;;5067689;28;19981;-73
2023/01/18 08:11:46;;;;;;;;;;;1.10;99.90;;;;;;5072615;28;19934;-73
2023/01/18 08:14:20;;;;;;;;;;;1.10;99.90;;;;;;5072300;28;19928;-75
2023/01/18 08:17:00;;;;;;;;;;;1.00;99.90;;;;;;5086522;28;19924;-71
2023/01/18 08:19:30;;;;;;;;;;;1.00;99.90;;;;;;5090284;28;19950;-71
2023/01/18 08:22:01;;;;;;;;;;;1.00;99.90;;;;;;5077518;28;19935;-73
2023/01/18 08:24:31;;;;;;;;;;;1.10;99.90;;;;;;5072071;28;19924;-72
2023/01/18 08:27:01;;;;;;;;;;;1.00;99.90;;;;;;5093281;28;19996;-73
2023/01/18 08:29:30;;;;;;;;;;;1.00;99.90;;;;;;5066285;28;19950;-75
2023/01/18 08:32:27;;;;;;;;;;;1.00;99.90;;;;;;5081926;28;20093;-76
2023/01/18 08:34:56;;;;;;;;;;;1.00;99.90;;;;;;5074821;28;19928;-71
2023/01/18 08:37:26;;;;;;;;;;;1.10;99.90;;;;;;5078648;28;20448;-72
2023/01/18 08:39:53;;;;;;;;;;;1.10;99.90;;;;;;5065712;28;19947;-72
2023/01/18 08:42:22;;;;;;;;;;;1.10;99.90;;;;;;5064675;28;19930;-71
2023/01/18 08:44:52;;;;;;;;;;;1.10;99.90;;;;;;5089783;28;19924;-72
2023/01/18 08:47:21;;;;;;;;;;;1.20;99.90;;;;;;5072099;28;20349;-72
2023/01/18 08:49:49;;;;;;;;;;;1.20;99.90;;;;;;5069459;28;19924;-72
2023/01/18 08:52:16;;;;;;;;;;;1.20;99.90;;;;;;5072042;28;19924;-73
2023/01/18 08:54:46;;;;;;;;;;;1.20;99.90;;;;;;5076165;28;19924;-71
2023/01/18 08:57:15;;;;;;;;;;;1.20;99.90;;;;;;5093571;28;19928;-73
2023/01/18 08:59:46;;;;;;;;;;;1.20;99.90;;;;;;5086497;28;20034;-73
2023/01/18 09:02:15;;;;;;;;;;;1.10;99.90;;;;;;5071392;28;19943;-73
2023/01/18 09:04:47;;;;;;;;;;;1.20;99.90;;;;;;5086235;28;19993;-74
2023/01/18 09:07:16;;;;;;;;;;;1.20;99.90;;;;;;5072272;28;19930;-71
2023/01/18 09:09:46;;;;;;;;;;;1.20;99.90;;;;;;5063418;28;19931;-74
2023/01/18 09:12:18;;;;;;;;;;;1.20;99.90;;;;;;5085176;28;19923;-74
2023/01/18 09:14:47;;;;;;;;;;;1.10;99.90;;;;;;5073305;28;19931;-72
2023/01/18 09:17:20;;;;;;;;;;;1.10;99.90;;;;;;5074079;28;19952;-72
2023/01/18 09:19:49;;;;;;;;;;;1.00;99.90;;;;;;5091930;28;19978;-73
2023/01/18 09:22:22;;;;;;;;;;;1.00;99.90;;;;;;5079481;28;19924;-73
2023/01/18 09:24:52;;;;;;;;;;;0.90;99.90;;;;;;5064353;28;19970;-73
2023/01/18 09:27:58;;;;;;;;;;;0.90;99.90;;;;;;5084528;28;19976;-72
2023/01/18 09:30:27;;;;;;;;;;;0.90;99.90;;;;;;5072694;28;19934;-73
2023/01/18 09:32:57;;;;;;;;;;;0.80;99.90;;;;;;5088946;28;19928;-73
2023/01/18 09:35:25;;;;;;;;;;;0.90;99.90;;;;;;5086312;28;19924;-73
2023/01/18 09:37:56;;;;;;;;;;;0.80;99.90;;;;;;5087844;28;19923;-72
2023/01/18 09:40:35;;;;;;;;;;;0.90;99.90;;;;;;5072119;28;19930;-73
2023/01/18 09:43:11;;;;;;;;;;;0.90;99.90;;;;;;5086811;28;20005;-73
2023/01/18 09:45:46;;;;;;;;;;;1.00;99.90;;;;;;5085343;28;20263;-73
2023/01/18 09:48:23;;;;;;;;;;;1.10;99.90;;;;;;5096357;28;20026;-73
2023/01/18 09:50:52;;;;;;;;;;;1.10;99.90;;;;;;5071420;28;19951;-73
2023/01/18 09:53:36;;;;;;;;;;;1.10;99.90;;;;;;5070177;28;19963;-72
2023/01/18 09:56:05;;;;;;;;;;;1.10;99.90;;;;;;5074817;28;20023;-72
2023/01/18 09:58:57;;;;;;;;;;;1.10;99.90;;;;;;5096818;28;20015;-73
2023/01/18 10:01:33;;;;;;;;;;;1.00;99.90;;;;;;5068361;28;19924;-72
2023/01/18 10:04:16;;;;;;;;;;;1.00;99.90;;;;;;5068302;28;20436;-73
2023/01/18 10:06:56;;;;;;;;;;;1.10;99.90;;;;;;5087805;28;19923;-73
2023/01/18 10:09:27;;;;;;;;;;;1.00;99.90;;;;;;5064151;28;19924;-73
2023/01/18 10:12:16;;;;;;;;;;;1.00;99.90;;;;;;5080607;28;19928;-72
2023/01/18 10:14:56;;;;;;;;;;;1.00;99.90;;;;;;5082178;28;20334;-72
2023/01/18 10:17:27;;;;;;;;;;;1.00;99.90;;;;;;5084418;28;19928;-73
2023/01/18 10:20:00;;;;;;;;;;;1.00;99.90;;;;;;5088225;28;19931;-71
2023/01/18 10:22:28;;;;;;;;;;;1.00;99.90;;;;;;5079129;28;19924;-71
2023/01/18 10:24:59;;;;;;;;;;;0.90;99.90;;;;;;5088594;28;19912;-70
2023/01/18 10:27:39;;;;;;;;;;;0.80;99.90;;;;;;5114001;28;19928;-73
2023/01/18 10:30:11;;;;;;;;;;;0.80;99.90;;;;;;5088627;28;20407;-72
2023/01/18 10:32:47;;;;;;;;;;;0.70;99.90;;;;;;5089215;28;19928;-72
2023/01/18 10:35:35;;;;;;;;;;;0.70;99.90;;;;;;5065337;28;19989;-73
2023/01/18 10:38:07;;;;;;;;;;;0.80;99.90;;;;;;5105707;28;19924;-73
2023/01/18 10:40:38;;;;;;;;;;;0.80;99.90;;;;;;5095031;28;19933;-72
2023/01/18 10:43:14;;;;;;;;;;;0.80;99.90;;;;;;5070031;28;19939;-73
2023/01/18 10:45:47;;;;;;;;;;;0.70;99.90;;;;;;5096732;28;19971;-72
2023/01/18 10:48:21;;;;;;;;;;;0.70;99.90;;;;;;5091865;28;20318;-73
2023/01/18 10:51:00;;;;;;;;;;;0.60;99.90;;;;;;5086302;28;19932;-73
2023/01/18 10:53:35;;;;;;;;;;;0.60;99.90;;;;;;5089538;28;20018;-73
2023/01/18 10:56:11;;;;;;;;;;;0.60;99.90;;;;;;5090132;28;20421;-73
2023/01/18 10:58:58;;;;;;;;;;;0.50;99.90;;;;;;5091371;28;19935;-73
2023/01/18 11:01:33;;;;;;;;;;;0.40;99.90;;;;;;5089295;28;20298;-72
2023/01/18 11:04:06;;;;;;;;;;;0.50;99.90;;;;;;5078954;28;20014;-73
2023/01/18 11:06:52;;;;;;;;;;;0.40;99.90;;;;;;5078160;28;20512;-71
2023/01/18 11:09:48;;;;;;;;;;;0.40;99.90;;;;;;5066897;28;20023;-70
2023/01/18 11:15:16;;;;;;;;;;;0.40;99.90;;;;;;5077213;28;19924;-71
2023/01/18 11:18:02;;;;;;;;;;;0.50;99.90;;;;;;5084260;27;20182;-71
2023/01/18 11:20:46;;;;;;;;;;;0.50;99.90;;;;;;5091308;28;19924;-72
2023/01/18 11:23:15;;;;;;;;;;;0.50;99.90;;;;;;5075087;28;19928;-71
2023/01/18 11:25:47;;;;;;;;;;;0.50;99.90;;;;;;5100782;27;19934;-71
2023/01/18 11:28:18;;;;;;;;;;;0.60;99.90;;;;;;5090034;28;19931;-71
2023/01/18 11:31:00;;;;;;;;;;;0.60;99.90;;;;;;5073968;28;20007;-73
2023/01/18 11:33:30;;;;;;;;;;;0.70;99.90;;;;;;5090422;28;19923;-71
2023/01/18 11:36:02;;;;;;;;;;;0.80;99.90;;;;;;5091985;28;19959;-71
2023/01/18 11:38:32;;;;;;;;;;;0.90;99.90;;;;;;5091758;28;19924;-72
2023/01/18 11:41:03;;;;;;;;;;;0.80;99.90;;;;;;5095234;28;19931;-71
2023/01/18 11:43:34;;;;;;;;;;;0.90;99.90;;;;;;5074774;28;19930;-73
2023/01/18 11:46:21;;;;;;;;;;;0.90;99.90;;;;;;5075156;28;19923;-72
2023/01/18 11:49:12;;;;;;;;;;;0.90;99.90;;;;;;5072393;28;19950;-71
2023/01/18 11:51:47;;;;;;;;;;;0.90;99.90;;;;;;5083402;28;20344;-71
2023/01/18 11:54:18;;;;;;;;;;;0.90;99.90;;;;;;5096543;28;19949;-71
2023/01/18 11:56:49;;;;;;;;;;;1.00;99.90;;;;;;5078575;28;20298;-71
2023/01/18 11:59:31;;;;;;;;;;;0.90;99.90;;;;;;5086572;28;19923;-72
2023/01/18 12:02:34;;;;;;;;;;;1.00;99.90;;;;;;5091204;28;19931;-71
2023/01/18 12:05:21;;;;;;;;;;;1.00;99.90;;;;;;5076188;28;19927;-73
2023/01/18 12:08:09;;;;;;;;;;;1.00;99.90;;;;;;5081522;28;19935;-72
2023/01/18 12:10:57;;;;;;;;;;;1.00;99.90;;;;;;5092370;27;20565;-71
2023/01/18 12:13:33;;;;;;;;;;;0.90;99.90;;;;;;5073605;28;19927;-72
2023/01/18 12:16:10;;;;;;;;;;;1.00;99.90;;;;;;5073632;28;19931;-71
2023/01/18 12:19:01;;;;;;;;;;;1.00;99.90;;;;;;5091607;28;19924;-71
2023/01/18 12:21:48;;;;;;;;;;;0.90;99.90;;;;;;5087861;28;20299;-71
2023/01/18 12:24:27;;;;;;;;;;;0.90;99.90;;;;;;5071770;28;19928;-70
2023/01/18 12:26:58;;;;;;;;;;;0.90;99.90;;;;;;5056978;28;20379;-71
2023/01/18 12:29:47;;;;;;;;;;;0.90;99.90;;;;;;5075452;28;19985;-71
2023/01/18 12:32:21;;;;;;;;;;;0.90;99.90;;;;;;5068744;28;19924;-72
2023/01/18 12:35:07;;;;;;;;;;;0.90;99.90;;;;;;5089445;28;19924;-71
2023/01/18 12:37:43;;;;;;;;;;;0.90;99.90;;;;;;5087784;28;20290;-72
2023/01/18 12:40:30;;;;;;;;;;;0.90;99.90;;;;;;5076193;28;20279;-71
2023/01/18 12:43:19;;;;;;;;;;;0.90;99.90;;;;;;5066924;28;19935;-71
2023/01/18 12:45:50;;;;;;;;;;;0.80;99.90;;;;;;5082132;28;20614;-70
2023/01/18 12:48:28;;;;;;;;;;;0.80;99.90;;;;;;5094482;28;20010;-71
2023/01/18 12:51:26;;;;;;;;;;;0.90;99.90;;;;;;5090752;28;20701;-71
2023/01/18 12:53:57;;;;;;;;;;;0.90;99.90;;;;;;5087037;28;20027;-70
2023/01/18 12:56:30;;;;;;;;;;;0.90;99.90;;;;;;5088988;28;19931;-71
2023/01/18 12:59:01;;;;;;;;;;;0.90;99.90;;;;;;5091009;28;20390;-71
2023/01/18 13:01:33;;;;;;;;;;;0.90;99.90;;;;;;5070023;28;19924;-71
2023/01/18 13:04:04;;;;;;;;;;;0.80;99.90;;;;;;5072826;28;19938;-71
2023/01/18 13:06:34;;;;;;;;;;;0.80;99.90;;;;;;5079591;28;19959;-71
2023/01/18 13:09:04;;;;;;;;;;;0.80;99.90;;;;;;5076081;28;19923;-71
2023/01/18 13:11:53;;;;;;;;;;;0.90;99.90;;;;;;5088323;28;19928;-71
2023/01/18 13:15:00;;;;;;;;;;;0.90;99.90;;;;;;5093119;28;19928;-70
2023/01/18 13:17:46;;;;;;;;;;;0.90;99.90;;;;;;5106203;28;19991;-72
2023/01/18 13:20:17;;;;;;;;;;;0.90;99.90;;;;;;5092578;28;19924;-73
2023/01/18 13:22:52;;;;;;;;;;;0.90;99.90;;;;;;5070209;28;19924;-72
2023/01/18 13:25:25;;;;;;;;;;;0.80;99.90;;;;;;5074734;28;19936;-71
2023/01/18 13:28:19;;;;;;;;;;;0.80;99.90;;;;;;5078605;28;19924;-71
2023/01/18 13:31:03;;;;;;;;;;;0.80;99.90;;;;;;5088015;28;20437;-71
2023/01/18 13:33:34;;;;;;;;;;;0.80;99.90;;;;;;5070236;28;19924;-71
2023/01/18 13:36:16;;;;;;;;;;;0.80;99.90;;;;;;5091754;28;19954;-71
2023/01/18 13:38:52;;;;;;;;;;;0.90;99.90;;;;;;5086249;28;19931;-72
2023/01/18 13:41:22;;;;;;;;;;;0.80;99.90;;;;;;5075221;28;19932;-71
2023/01/18 13:43:52;;;;;;;;;;;0.80;99.90;;;;;;5085998;28;19971;-71
2023/01/18 13:46:27;;;;;;;;;;;0.80;99.90;;;;;;5075150;28;19928;-72
2023/01/18 13:49:34;;;;;;;;;;;0.80;99.90;;;;;;5070691;28;19923;-71
2023/01/18 13:52:26;;;;;;;;;;;0.70;99.90;;;;;;5062337;28;19923;-71
2023/01/18 13:54:57;;;;;;;;;;;0.70;99.90;;;;;;5080263;28;19924;-71
2023/01/18 13:57:31;;;;;;;;;;;0.70;99.90;;;;;;5092236;27;19931;-71
2023/01/18 14:00:01;;;;;;;;;;;0.70;99.90;;;;;;5074991;28;20045;-71
2023/01/18 14:02:33;;;;;;;;;;;0.80;99.90;;;;;;5089732;28;19973;-71
2023/01/18 14:05:02;;;;;;;;;;;0.80;99.90;;;;;;5077158;28;19928;-72
2023/01/18 14:07:37;;;;;;;;;;;0.80;99.90;;;;;;5094226;28;19931;-72
2023/01/18 14:10:16;;;;;;;;;;;0.80;99.90;;;;;;5074771;28;19935;-71
2023/01/18 14:12:49;;;;;;;;;;;0.80;99.90;;;;;;5097198;28;19924;-71
2023/01/18 14:15:30;;;;;;;;;;;0.80;99.90;;;;;;5077942;27;19946;-72
2023/01/18 14:18:00;;;;;;;;;;;0.80;99.90;;;;;;5098096;28;19924;-70
2023/01/18 14:20:32;;;;;;;;;;;0.70;99.90;;;;;;5082262;28;20332;-74
2023/01/18 14:23:17;;;;;;;;;;;0.70;99.90;;;;;;5098192;28;20301;-72
2023/01/18 14:25:59;;;;;;;;;;;0.70;99.90;;;;;;5081138;28;20027;-71
2023/01/18 14:28:51;;;;;;;;;;;0.70;99.90;;;;;;5104023;28;19928;-71
2023/01/18 14:31:33;;;;;;;;;;;0.70;99.90;;;;;;5091589;28;19931;-72
2023/01/18 14:34:21;;;;;;;;;;;0.60;99.90;;;;;;5092179;27;19930;-71
2023/01/18 14:36:52;;;;;;;;;;;0.70;99.90;;;;;;5077471;28;19931;-71
2023/01/18 14:39:21;;;;;;;;;;;0.60;99.90;;;;;;5071367;28;19989;-71
2023/01/18 14:42:03;;;;;;;;;;;0.70;99.90;;;;;;5075705;27;19931;-72
2023/01/18 14:44:44;;;;;;;;;;;0.60;99.90;;;;;;5097782;28;19931;-71
2023/01/18 14:47:19;;;;;;;;;;;0.60;99.90;;;;;;5103039;27;19924;-71
2023/01/18 14:49:48;;;;;;;;;;;0.60;99.90;;;;;;5079825;28;20727;-71
2023/01/18 14:52:19;;;;;;;;;;;0.60;99.90;;;;;;5072952;28;19924;-71
2023/01/18 14:54:53;;;;;;;;;;;0.60;99.90;;;;;;5106616;27;19931;-70
2023/01/18 14:58:00;;;;;;;;;;;0.60;99.90;;;;;;5107014;28;19931;-72
2023/01/18 15:00:30;;;;;;;;;;;0.60;99.90;;;;;;5099276;28;19946;-71
2023/01/18 15:03:00;;;;;;;;;;;0.60;99.90;;;;;;5071593;28;19959;-71
2023/01/18 15:05:29;;;;;;;;;;;0.60;99.90;;;;;;5094145;28;19928;-72
2023/01/18 15:08:00;;;;;;;;;;;0.60;99.90;;;;;;5077139;28;19924;-71
2023/01/18 15:10:38;;;;;;;;;;;0.60;99.90;;;;;;5078084;28;19924;-71
2023/01/18 15:13:13;;;;;;;;;;;0.50;99.90;;;;;;5077436;27;20301;-71
2023/01/18 15:15:42;;;;;;;;;;;0.50;99.90;;;;;;5102599;28;19924;-71
2023/01/18 15:18:18;;;;;;;;;;;0.60;99.90;;;;;;5102892;28;19997;-72
2023/01/18 15:21:05;;;;;;;;;;;0.60;99.90;;;;;;5098935;28;19928;-72
2023/01/18 15:23:42;;;;;;;;;;;0.60;99.90;;;;;;5097483;28;19924;-70
2023/01/18 15:26:12;;;;;;;;;;;0.60;99.90;;;;;;5102765;28;19931;-71
2023/01/18 15:28:43;;;;;;;;;;;0.60;99.90;;;;;;5087601;28;20836;-70
2023/01/18 15:31:16;;;;;;;;;;;0.60;99.90;;;;;;5079039;28;19923;-71
2023/01/18 15:33:47;;;;;;;;;;;0.60;99.90;;;;;;5058954;28;19967;-71
2023/01/18 15:36:16;;;;;;;;;;;0.50;99.90;;;;;;5076260;28;20392;-73
2023/01/18 15:38:46;;;;;;;;;;;0.50;99.90;;;;;;5060362;27;19931;-70
2023/01/18 15:41:39;;;;;;;;;;;0.50;99.90;;;;;;5088870;28;19961;-71
2023/01/18 15:44:28;;;;;;;;;;;0.50;99.90;;;;;;5081015;28;19923;-71